Terminal Aerodrome Forecast
Issued by NWS Pocatello, ID

Home | Current Version | Previous Version | Text Only | Print | Product List | Glossary On
Versions: 1 2 3 4 5 6 7 8 9 10 11 12 13 14 15 16 17 18 19 20 21
000
FTUS45 KPIH 250300 AAB
TAFPIH
TAF AMD
KPIH 250300Z 2503/2524 18014G20KT P6SM -RA BKN025 OVC040
     FM250500 19014G24KT 2SM -RASN BKN003 OVC015
     FM250900 24014G24KT 1SM -SN OVC002
     FM251900 28012G20KT P6SM VCSH SCT003 OVC035=

USA.gov is the U.S. government's official web portal to all federal, state and local government web resources and services.